Time;durP1;ratioP1;P1;durP2;ratioP2;P2;SDS_P1;SDS_P2;PMS_P1;PMS_P2;Temp;Humidity;BMP_temperature;BMP_pressure;BME280_temperature;BME280_humidity;BME280_pressure;Samples;Min_cycle;Max_cycle;Signal;HPM_P1;HPM_P2
2023/12/19 00:00:28;;;;;;;103.07;45.30;;;8.40;99.90;;;;;;5093512;28;20052;-78
2023/12/19 00:02:54;;;;;;;92.67;42.90;;;8.40;99.90;;;;;;5094169;28;20056;-78
2023/12/19 00:05:20;;;;;;;81.87;42.27;;;8.40;99.90;;;;;;5092868;28;20293;-78
2023/12/19 00:07:48;;;;;;;100.93;45.77;;;8.40;99.90;;;;;;5093593;28;20369;-79
2023/12/19 00:10:14;;;;;;;100.10;45.50;;;8.40;99.90;;;;;;5093528;28;20051;-78
2023/12/19 00:12:40;;;;;;;94.73;45.43;;;8.40;99.90;;;;;;5093414;28;20294;-78
2023/12/19 00:15:06;;;;;;;103.13;44.67;;;8.40;99.90;;;;;;5093488;28;20087;-77
2023/12/19 00:17:32;;;;;;;104.03;47.63;;;8.40;99.90;;;;;;5092458;28;20290;-77
2023/12/19 00:19:58;;;;;;;117.20;48.93;;;8.40;99.90;;;;;;5093473;28;20285;-77
2023/12/19 00:22:24;;;;;;;96.93;45.30;;;8.40;99.90;;;;;;5094020;28;20040;-78
2023/12/19 00:24:51;;;;;;;108.77;45.83;;;8.40;99.90;;;;;;5094003;28;20095;-78
2023/12/19 00:27:17;;;;;;;93.20;44.33;;;8.40;99.90;;;;;;5093397;28;20286;-78
2023/12/19 00:29:42;;;;;;;95.47;43.43;;;8.40;99.90;;;;;;5093932;28;20285;-78
2023/12/19 00:32:08;;;;;;;93.73;45.20;;;8.40;99.90;;;;;;5092100;28;20048;-78
2023/12/19 00:34:34;;;;;;;86.07;42.53;;;8.40;99.90;;;;;;5093395;28;20097;-78
2023/12/19 00:37:00;;;;;;;86.17;42.97;;;8.40;99.90;;;;;;5093242;28;20506;-77
2023/12/19 00:39:27;;;;;;;89.33;42.00;;;8.40;99.90;;;;;;5093223;28;20040;-77
2023/12/19 00:41:53;;;;;;;82.60;40.47;;;8.40;99.90;;;;;;5092907;28;20123;-78
2023/12/19 00:44:19;;;;;;;90.50;42.70;;;8.40;99.90;;;;;;5097029;28;20383;-77
2023/12/19 00:46:45;;;;;;;93.97;43.70;;;8.40;99.90;;;;;;5096618;28;20123;-77
2023/12/19 00:49:11;;;;;;;80.57;39.80;;;8.40;99.90;;;;;;5096916;28;20048;-77
2023/12/19 00:51:37;;;;;;;105.77;45.70;;;8.40;99.90;;;;;;5096327;28;20122;-77
2023/12/19 00:54:03;;;;;;;84.90;40.30;;;8.30;99.90;;;;;;5096579;28;20347;-77
2023/12/19 00:56:29;;;;;;;73.63;37.77;;;8.30;99.90;;;;;;5096141;28;20286;-77
2023/12/19 00:58:55;;;;;;;81.80;39.73;;;8.40;99.90;;;;;;5097329;28;20645;-77
2023/12/19 01:01:23;;;;;;;72.60;36.97;;;8.30;99.90;;;;;;5095277;28;20305;-77
2023/12/19 01:03:49;;;;;;;68.97;35.07;;;8.30;99.90;;;;;;5096044;28;20052;-77
2023/12/19 01:06:15;;;;;;;80.70;39.07;;;8.30;99.90;;;;;;5097234;28;20290;-77
2023/12/19 01:08:40;;;;;;;77.60;37.07;;;8.30;99.90;;;;;;5095445;28;20282;-77
2023/12/19 01:11:09;;;;;;;68.63;35.33;;;8.30;99.90;;;;;;5096498;28;20040;-77
2023/12/19 01:13:38;;;;;;;76.67;36.87;;;8.30;99.90;;;;;;5096561;28;20055;-78
2023/12/19 01:16:04;;;;;;;67.80;34.13;;;8.30;99.90;;;;;;5096494;28;20278;-77
2023/12/19 01:18:30;;;;;;;63.00;32.50;;;8.30;99.90;;;;;;5096466;28;20283;-77
2023/12/19 01:20:56;;;;;;;63.00;32.20;;;8.30;99.90;;;;;;5096949;28;20722;-77
2023/12/19 01:23:23;;;;;;;58.63;33.03;;;8.30;99.90;;;;;;5096375;28;20044;-76
2023/12/19 01:25:49;;;;;;;53.23;30.03;;;8.20;99.90;;;;;;5096336;28;20048;-76
2023/12/19 01:28:14;;;;;;;51.23;29.10;;;8.30;99.90;;;;;;5097038;28;20772;-76
2023/12/19 01:30:40;;;;;;;53.53;28.60;;;8.30;99.90;;;;;;5096257;28;20365;-76
2023/12/19 01:33:08;;;;;;;44.83;27.57;;;8.30;99.90;;;;;;5096109;28;20143;-76
2023/12/19 01:35:34;;;;;;;51.03;28.23;;;8.30;99.90;;;;;;5096163;28;20048;-76
2023/12/19 01:37:59;;;;;;;45.57;27.50;;;8.30;99.90;;;;;;5096077;28;20274;-76
2023/12/19 01:40:28;;;;;;;48.37;27.87;;;8.30;99.90;;;;;;5096035;28;20044;-76
2023/12/19 01:42:55;;;;;;;50.67;28.30;;;8.30;99.90;;;;;;5095980;28;20407;-76
2023/12/19 01:45:22;;;;;;;51.27;28.97;;;8.30;99.90;;;;;;5095916;28;20284;-76
2023/12/19 01:47:48;;;;;;;48.77;26.73;;;8.30;99.90;;;;;;5095883;28;20289;-76
2023/12/19 01:50:15;;;;;;;49.20;28.20;;;8.30;99.90;;;;;;5094851;28;20282;-76
2023/12/19 01:52:59;;;;;;;50.57;28.07;;;8.30;99.90;;;;;;5095604;28;20036;-76
2023/12/19 01:55:26;;;;;;;49.20;27.17;;;8.30;99.90;;;;;;5096356;28;20277;-76
2023/12/19 01:57:56;;;;;;;50.70;28.07;;;8.20;99.90;;;;;;5095706;28;20293;-76
2023/12/19 02:00:22;;;;;;;43.63;25.90;;;8.30;99.90;;;;;;5095950;28;20278;-76
2023/12/19 02:02:52;;;;;;;40.20;24.93;;;8.30;99.90;;;;;;5095069;28;20888;-76
2023/12/19 02:05:18;;;;;;;50.07;26.67;;;8.30;99.90;;;;;;5095552;28;20290;-76
2023/12/19 02:07:44;;;;;;;42.47;25.47;;;8.30;99.90;;;;;;5095496;28;20277;-76
2023/12/19 02:10:11;;;;;;;43.80;25.93;;;8.30;99.90;;;;;;5095362;28;20286;-76
2023/12/19 02:12:38;;;;;;;43.43;25.07;;;8.30;99.90;;;;;;5095933;28;20389;-76
2023/12/19 02:15:05;;;;;;;39.43;24.63;;;8.30;99.90;;;;;;5096211;28;20301;-76
2023/12/19 02:17:31;;;;;;;41.90;25.23;;;8.30;99.90;;;;;;5094984;28;20680;-76
2023/12/19 02:19:56;;;;;;;47.03;25.70;;;8.30;99.90;;;;;;5095560;28;20275;-76
2023/12/19 02:22:22;;;;;;;43.97;25.87;;;8.30;99.90;;;;;;5095235;28;20044;-76
2023/12/19 02:24:48;;;;;;;41.43;25.03;;;8.30;99.90;;;;;;5095455;28;20044;-76
2023/12/19 02:27:15;;;;;;;46.23;25.40;;;8.30;99.90;;;;;;5095074;28;20084;-76
2023/12/19 02:29:41;;;;;;;40.33;24.50;;;8.30;99.90;;;;;;5095089;28;20286;-76
2023/12/19 02:32:07;;;;;;;47.73;26.47;;;8.30;99.90;;;;;;5093700;28;20333;-76
2023/12/19 02:34:33;;;;;;;49.67;26.53;;;8.30;99.90;;;;;;5095314;28;20044;-76
2023/12/19 02:36:58;;;;;;;49.40;26.47;;;8.30;99.90;;;;;;5094945;28;20445;-76
2023/12/19 02:39:24;;;;;;;46.47;26.57;;;8.30;99.90;;;;;;5095488;28;20044;-76
2023/12/19 02:41:50;;;;;;;41.37;25.37;;;8.30;99.90;;;;;;5094606;28;20036;-76
2023/12/19 02:44:15;;;;;;;49.23;27.83;;;8.20;99.90;;;;;;5094924;28;20044;-76
2023/12/19 02:46:41;;;;;;;45.33;26.17;;;8.30;99.90;;;;;;5094380;28;20052;-76
2023/12/19 02:49:07;;;;;;;49.70;27.33;;;8.30;99.90;;;;;;5094280;28;20059;-76
2023/12/19 02:51:33;;;;;;;49.33;28.00;;;8.30;99.90;;;;;;5094204;28;20051;-76
2023/12/19 02:53:59;;;;;;;55.27;28.50;;;8.20;99.90;;;;;;5094162;28;20047;-76
2023/12/19 02:56:25;;;;;;;54.03;28.43;;;8.20;99.90;;;;;;5094140;28;20055;-75
2023/12/19 02:58:51;;;;;;;43.80;25.13;;;8.20;99.90;;;;;;5094467;28;20040;-76
2023/12/19 03:01:17;;;;;;;46.87;27.07;;;8.20;99.90;;;;;;5093767;28;20770;-75
2023/12/19 03:03:43;;;;;;;44.23;25.37;;;8.20;99.90;;;;;;5094760;28;20274;-75
2023/12/19 03:06:10;;;;;;;46.37;26.87;;;8.20;99.90;;;;;;5093637;28;20092;-76
2023/12/19 03:08:36;;;;;;;45.80;26.13;;;8.20;99.90;;;;;;5093202;28;20313;-76
2023/12/19 03:11:02;;;;;;;43.57;26.27;;;8.20;99.90;;;;;;5094296;28;20351;-76
2023/12/19 03:13:28;;;;;;;48.97;25.93;;;8.30;99.90;;;;;;5094327;28;20280;-76
2023/12/19 03:15:54;;;;;;;40.87;25.00;;;8.20;99.90;;;;;;5093117;28;20282;-76
2023/12/19 03:18:24;;;;;;;50.13;28.30;;;8.20;99.90;;;;;;5094201;28;20040;-76
2023/12/19 03:20:54;;;;;;;39.50;25.60;;;8.20;99.90;;;;;;5094509;28;20279;-76
2023/12/19 03:23:23;;;;;;;42.07;26.20;;;8.20;99.90;;;;;;5094083;28;20330;-76
2023/12/19 03:25:49;;;;;;;43.47;26.60;;;8.20;99.90;;;;;;5076023;28;20417;-76
2023/12/19 03:28:15;;;;;;;46.60;26.30;;;8.20;99.90;;;;;;5094081;28;20372;-76
2023/12/19 03:30:42;;;;;;;47.13;27.73;;;8.20;99.90;;;;;;5093985;28;20289;-76
2023/12/19 03:33:08;;;;;;;53.20;29.53;;;8.20;99.90;;;;;;5094474;28;20290;-76
2023/12/19 03:35:33;;;;;;;48.63;28.20;;;8.20;99.90;;;;;;5093930;28;20274;-76
2023/12/19 03:38:00;;;;;;;47.47;27.07;;;8.20;99.90;;;;;;5093966;28;20048;-76
2023/12/19 03:40:26;;;;;;;43.93;26.00;;;8.20;99.90;;;;;;5093943;28;20377;-76
2023/12/19 03:42:52;;;;;;;40.50;25.83;;;8.20;99.90;;;;;;5094686;28;20335;-76
2023/12/19 03:45:18;;;;;;;43.17;25.97;;;8.20;99.90;;;;;;5094085;28;20411;-77
2023/12/19 03:47:43;;;;;;;39.03;23.77;;;8.20;99.90;;;;;;5093701;28;20047;-77
2023/12/19 03:50:09;;;;;;;46.13;25.80;;;8.20;99.90;;;;;;5093649;28;20135;-77
2023/12/19 03:52:36;;;;;;;46.20;25.00;;;8.20;99.90;;;;;;5093753;28;20040;-76
2023/12/19 03:55:02;;;;;;;46.23;25.57;;;8.20;99.90;;;;;;5093747;28;20270;-77
2023/12/19 03:57:28;;;;;;;39.00;24.63;;;8.20;99.90;;;;;;5093392;28;20766;-76
2023/12/19 03:59:54;;;;;;;32.03;21.00;;;8.20;99.90;;;;;;5093705;28;20282;-76
2023/12/19 04:02:19;;;;;;;36.40;21.80;;;8.20;99.90;;;;;;5093398;28;20060;-76
2023/12/19 04:04:45;;;;;;;31.87;20.83;;;8.20;99.90;;;;;;5093873;28;20052;-76
2023/12/19 04:07:11;;;;;;;30.77;19.87;;;8.20;99.90;;;;;;5093590;28;20388;-76
2023/12/19 04:09:37;;;;;;;37.70;22.03;;;8.20;99.90;;;;;;5093572;28;20130;-77
2023/12/19 04:12:03;;;;;;;38.23;21.93;;;8.20;99.90;;;;;;5092705;28;20044;-77
2023/12/19 04:14:33;;;;;;;37.17;21.33;;;8.20;99.90;;;;;;5093576;28;20048;-76
2023/12/19 04:16:59;;;;;;;35.03;20.80;;;8.20;99.90;;;;;;5095298;28;20277;-76
2023/12/19 04:19:25;;;;;;;36.23;21.10;;;8.20;99.90;;;;;;5098176;28;20281;-76
2023/12/19 04:21:51;;;;;;;33.53;21.37;;;8.20;99.90;;;;;;5098430;28;20292;-76
2023/12/19 04:24:18;;;;;;;32.43;20.10;;;8.20;99.90;;;;;;5097632;28;20770;-77
2023/12/19 04:26:43;;;;;;;35.83;20.73;;;8.20;99.90;;;;;;5098060;28;20282;-77
2023/12/19 04:29:09;;;;;;;38.57;21.43;;;8.30;99.90;;;;;;5097523;28;20327;-78
2023/12/19 04:31:36;;;;;;;39.27;21.77;;;8.20;99.90;;;;;;5097352;28;20123;-78
2023/12/19 04:34:02;;;;;;;38.63;21.07;;;8.20;99.90;;;;;;5097405;28;20331;-78
2023/12/19 04:36:30;;;;;;;32.43;19.33;;;8.20;99.90;;;;;;5097337;28;20279;-77
2023/12/19 04:38:56;;;;;;;34.07;19.77;;;8.20;99.90;;;;;;5097650;28;20407;-78
2023/12/19 04:41:22;;;;;;;36.20;19.90;;;8.20;99.90;;;;;;5097827;28;20371;-78
2023/12/19 04:43:47;;;;;;;32.53;18.33;;;8.30;99.90;;;;;;5096936;28;20047;-77
2023/12/19 04:46:13;;;;;;;31.00;18.60;;;8.20;99.90;;;;;;5097503;28;20075;-77
2023/12/19 04:48:42;;;;;;;30.57;18.53;;;8.20;99.90;;;;;;5097094;28;20287;-76
2023/12/19 04:51:16;;;;;;;30.13;17.33;;;8.30;99.90;;;;;;5097243;28;20092;-77
2023/12/19 04:53:42;;;;;;;30.57;18.37;;;8.20;99.90;;;;;;5097073;28;20681;-77
2023/12/19 04:56:07;;;;;;;29.43;17.63;;;8.30;99.90;;;;;;5096974;28;20274;-77
2023/12/19 04:58:33;;;;;;;29.97;17.87;;;8.30;99.90;;;;;;5096925;28;20048;-77
2023/12/19 05:00:59;;;;;;;29.83;17.80;;;8.30;99.90;;;;;;5097193;28;20140;-77
2023/12/19 05:03:26;;;;;;;27.97;17.67;;;8.30;99.90;;;;;;5096537;28;20067;-77
2023/12/19 05:05:51;;;;;;;32.33;17.53;;;8.30;99.90;;;;;;5096752;28;20044;-78
2023/12/19 05:08:17;;;;;;;27.03;17.20;;;8.30;99.90;;;;;;5095487;28;20372;-78
2023/12/19 05:10:43;;;;;;;25.93;16.77;;;8.30;99.90;;;;;;5096682;28;20083;-77
2023/12/19 05:13:10;;;;;;;29.03;17.63;;;8.30;99.90;;;;;;5096252;28;20044;-78
2023/12/19 05:15:35;;;;;;;30.87;18.10;;;8.30;99.90;;;;;;5097152;28;20048;-78
2023/12/19 05:18:01;;;;;;;27.43;16.23;;;8.30;99.90;;;;;;5096522;28;20607;-78
2023/12/19 05:20:27;;;;;;;33.80;18.43;;;8.30;99.90;;;;;;5097032;28;20040;-78
2023/12/19 05:22:52;;;;;;;26.77;18.03;;;8.30;99.90;;;;;;5096392;28;20040;-79
2023/12/19 05:25:19;;;;;;;33.17;19.13;;;8.30;99.90;;;;;;5096427;28;20044;-78
2023/12/19 05:27:45;;;;;;;29.37;17.53;;;8.40;99.90;;;;;;5095971;28;20054;-78
2023/12/19 05:30:15;;;;;;;28.17;16.60;;;8.40;99.90;;;;;;5095992;28;20701;-78
2023/12/19 05:32:40;;;;;;;27.17;16.70;;;8.40;99.90;;;;;;5095020;28;20047;-78
2023/12/19 05:35:07;;;;;;;24.80;15.40;;;8.40;99.90;;;;;;5096710;28;20366;-77
2023/12/19 05:37:32;;;;;;;25.03;15.37;;;8.40;99.90;;;;;;5096271;28;20083;-77
2023/12/19 05:39:58;;;;;;;23.47;15.43;;;8.40;99.90;;;;;;5096049;28;20340;-78
2023/12/19 05:42:24;;;;;;;26.07;14.87;;;8.40;99.90;;;;;;5096856;28;20044;-77
2023/12/19 05:44:50;;;;;;;23.77;15.27;;;8.40;99.90;;;;;;5095948;28;20055;-78
2023/12/19 05:47:16;;;;;;;24.57;15.30;;;8.40;99.90;;;;;;5095953;28;20175;-77
2023/12/19 05:49:41;;;;;;;21.33;14.27;;;8.40;99.90;;;;;;5095898;28;20123;-77
2023/12/19 05:52:07;;;;;;;25.10;15.53;;;8.40;99.90;;;;;;5094758;28;20039;-77
2023/12/19 05:54:33;;;;;;;25.20;15.50;;;8.40;99.90;;;;;;5096058;28;20052;-77
2023/12/19 05:56:59;;;;;;;21.83;14.87;;;8.40;99.90;;;;;;5095793;28;20484;-77
2023/12/19 05:59:25;;;;;;;25.47;15.10;;;8.40;99.90;;;;;;5095703;28;20109;-77
2023/12/19 06:01:50;;;;;;;26.83;15.00;;;8.40;99.90;;;;;;5095961;28;20044;-76
2023/12/19 06:04:16;;;;;;;26.53;16.20;;;8.40;99.90;;;;;;5095497;28;20060;-77
2023/12/19 06:06:44;;;;;;;22.93;14.43;;;8.40;99.90;;;;;;5077701;28;20472;-77
2023/12/19 06:09:13;;;;;;;25.87;15.70;;;8.40;99.90;;;;;;5094552;28;20131;-77
2023/12/19 06:11:39;;;;;;;25.63;16.00;;;8.40;99.90;;;;;;5095118;28;20840;-77
2023/12/19 06:14:05;;;;;;;23.63;15.63;;;8.40;99.90;;;;;;5094580;28;20676;-77
2023/12/19 06:16:32;;;;;;;30.33;17.27;;;8.40;99.90;;;;;;5095409;28;20361;-77
2023/12/19 06:18:58;;;;;;;28.17;16.63;;;8.40;99.90;;;;;;5095205;28;20292;-77
2023/12/19 06:21:24;;;;;;;26.47;16.47;;;8.40;99.90;;;;;;5096142;28;20270;-77
2023/12/19 06:23:50;;;;;;;27.67;17.60;;;8.40;99.90;;;;;;5095225;28;20286;-76
2023/12/19 06:26:16;;;;;;;27.80;16.93;;;8.40;99.90;;;;;;5095238;28;20282;-76
2023/12/19 06:28:42;;;;;;;28.10;17.50;;;8.40;99.90;;;;;;5095689;28;20741;-76
2023/12/19 06:31:08;;;;;;;30.80;18.30;;;8.40;99.90;;;;;;5095150;28;20043;-76
2023/12/19 06:33:36;;;;;;;32.17;18.00;;;8.40;99.90;;;;;;5095028;28;20047;-77
2023/12/19 06:36:03;;;;;;;27.57;17.30;;;8.40;99.90;;;;;;5095053;28;20479;-77
2023/12/19 06:38:29;;;;;;;27.43;16.50;;;8.40;99.90;;;;;;5095058;28;20274;-76
2023/12/19 06:40:54;;;;;;;36.00;18.47;;;8.50;99.90;;;;;;5094879;28;20326;-77
2023/12/19 06:43:20;;;;;;;39.83;18.93;;;8.50;99.90;;;;;;5093846;28;20290;-77
2023/12/19 06:45:46;;;;;;;29.57;17.47;;;8.40;99.90;;;;;;5094862;28;20044;-77
2023/12/19 06:48:12;;;;;;;38.27;18.63;;;8.50;99.90;;;;;;5093544;28;20047;-77
2023/12/19 06:50:39;;;;;;;30.23;16.70;;;8.50;99.90;;;;;;5094759;28;20087;-77
2023/12/19 06:53:05;;;;;;;32.60;16.90;;;8.50;99.90;;;;;;5095458;28;20043;-77
2023/12/19 06:55:30;;;;;;;32.07;16.70;;;8.50;99.90;;;;;;5095385;28;20278;-77
2023/12/19 06:57:57;;;;;;;29.40;15.10;;;8.50;99.90;;;;;;5094557;28;20101;-77
2023/12/19 07:00:23;;;;;;;32.73;17.07;;;8.50;99.90;;;;;;5094501;28;20055;-77
2023/12/19 07:02:49;;;;;;;30.53;15.53;;;8.50;99.90;;;;;;5094517;28;20294;-77
2023/12/19 07:05:15;;;;;;;35.87;16.37;;;8.50;99.90;;;;;;5094466;28;20439;-77
2023/12/19 07:07:40;;;;;;;32.57;15.87;;;8.50;99.90;;;;;;5094443;28;20043;-77
2023/12/19 07:10:06;;;;;;;32.07;15.77;;;8.50;99.90;;;;;;5094348;28;20097;-79
2023/12/19 07:12:32;;;;;;;35.50;16.10;;;8.50;99.90;;;;;;5093206;28;20365;-77
2023/12/19 07:14:59;;;;;;;24.23;14.20;;;8.50;99.90;;;;;;5094288;28;20289;-78
2023/12/19 07:17:24;;;;;;;22.80;12.27;;;8.50;99.90;;;;;;5094350;28;20048;-77
2023/12/19 07:19:50;;;;;;;24.77;13.23;;;8.50;99.90;;;;;;5094289;28;20609;-78
2023/12/19 07:22:16;;;;;;;25.53;13.17;;;8.50;99.90;;;;;;5094782;28;20036;-78
2023/12/19 07:24:42;;;;;;;23.93;12.43;;;8.60;99.90;;;;;;5094031;28;20052;-78
2023/12/19 07:27:08;;;;;;;22.57;12.53;;;8.60;99.90;;;;;;5094133;28;20036;-79
2023/12/19 07:29:37;;;;;;;23.27;11.40;;;8.60;99.90;;;;;;5093803;28;20492;-80
2023/12/19 07:32:03;;;;;;;25.50;12.67;;;8.60;99.90;;;;;;5093942;28;20384;-78
2023/12/19 07:34:28;;;;;;;24.57;11.77;;;8.60;99.90;;;;;;5094573;28;20416;-78
2023/12/19 07:36:54;;;;;;;24.70;12.10;;;8.60;99.90;;;;;;5093979;28;20044;-77
2023/12/19 07:39:20;;;;;;;21.37;11.60;;;8.60;99.90;;;;;;5094016;28;20058;-77
2023/12/19 07:41:45;;;;;;;27.33;12.67;;;8.60;99.90;;;;;;5093932;28;20438;-77
2023/12/19 07:44:13;;;;;;;18.27;10.70;;;8.60;99.90;;;;;;5093970;28;20047;-77
2023/12/19 07:46:42;;;;;;;22.60;11.17;;;8.60;99.90;;;;;;5094151;28;20047;-77
2023/12/19 07:49:11;;;;;;;18.17;10.63;;;8.60;99.90;;;;;;5092838;28;20634;-77
2023/12/19 07:51:37;;;;;;;21.97;12.20;;;8.60;99.90;;;;;;5094001;28;20302;-77
2023/12/19 07:54:02;;;;;;;27.23;13.13;;;8.60;99.90;;;;;;5093656;28;20274;-77
2023/12/19 07:56:28;;;;;;;25.13;13.67;;;8.60;99.90;;;;;;5092568;28;20044;-77
2023/12/19 07:58:54;;;;;;;22.27;12.73;;;8.60;99.90;;;;;;5093577;28;20052;-77
2023/12/19 08:01:20;;;;;;;32.97;16.17;;;8.60;99.90;;;;;;5093719;28;20551;-77
2023/12/19 08:03:46;;;;;;;27.73;15.33;;;8.60;99.90;;;;;;5093718;28;20097;-77
2023/12/19 08:06:13;;;;;;;28.80;14.97;;;8.60;99.90;;;;;;5093991;28;20299;-77
2023/12/19 08:08:39;;;;;;;32.80;16.80;;;8.60;99.90;;;;;;5093667;28;20285;-77
2023/12/19 08:11:05;;;;;;;30.63;16.00;;;8.60;99.90;;;;;;5092536;28;20436;-77
2023/12/19 08:13:31;;;;;;;29.80;15.97;;;8.60;99.90;;;;;;5093523;28;20414;-77
2023/12/19 08:15:57;;;;;;;33.67;16.30;;;8.60;99.90;;;;;;5093284;28;20555;-77
2023/12/19 08:18:23;;;;;;;33.37;17.07;;;8.60;99.90;;;;;;5093586;28;20375;-77
2023/12/19 08:20:48;;;;;;;34.20;17.67;;;8.60;99.90;;;;;;5092578;28;20392;-77
2023/12/19 08:23:14;;;;;;;34.83;17.20;;;8.60;99.90;;;;;;5094120;28;20053;-77
2023/12/19 08:25:41;;;;;;;29.13;15.23;;;8.70;99.90;;;;;;5092291;28;20101;-77
2023/12/19 08:28:11;;;;;;;34.83;17.60;;;8.70;99.90;;;;;;5094284;28;20070;-77
2023/12/19 08:30:38;;;;;;;32.30;17.57;;;8.70;99.90;;;;;;5094198;28;20278;-76
2023/12/19 08:33:05;;;;;;;35.37;18.10;;;8.70;99.90;;;;;;5093111;28;20692;-76
2023/12/19 08:35:30;;;;;;;32.00;15.80;;;8.70;99.90;;;;;;5093498;28;20339;-76
2023/12/19 08:37:56;;;;;;;28.40;14.83;;;8.70;99.90;;;;;;5093359;28;20282;-76
2023/12/19 08:40:22;;;;;;;28.33;14.47;;;8.70;99.90;;;;;;5093246;28;20105;-76
2023/12/19 08:42:48;;;;;;;29.90;15.47;;;8.70;99.90;;;;;;5093328;28;20040;-76
2023/12/19 08:45:15;;;;;;;24.93;14.47;;;8.80;99.90;;;;;;5093241;28;20056;-76
2023/12/19 08:47:45;;;;;;;27.40;14.53;;;8.80;99.90;;;;;;5093303;28;20290;-76
2023/12/19 08:50:12;;;;;;;27.23;13.53;;;8.80;99.90;;;;;;5093263;28;20282;-77
2023/12/19 08:52:42;;;;;;;22.83;13.47;;;8.80;99.90;;;;;;5092313;28;20676;-75
2023/12/19 08:55:12;;;;;;;25.97;13.03;;;8.80;99.90;;;;;;5092297;28;20626;-76
2023/12/19 08:57:45;;;;;;;19.90;11.00;;;8.80;99.90;;;;;;5093216;28;20310;-76
2023/12/19 09:00:19;;;;;;;22.53;11.90;;;8.80;99.90;;;;;;5093174;28;20357;-78
2023/12/19 09:02:46;;;;;;;17.58;9.98;;;8.80;99.90;;;;;;5092063;28;20287;-76
2023/12/19 09:05:13;;;;;;;17.67;10.00;;;8.80;99.90;;;;;;5096553;28;20477;-74
2023/12/19 09:07:43;;;;;;;19.10;10.37;;;8.80;99.90;;;;;;5096917;28;20381;-75
2023/12/19 09:10:11;;;;;;;21.13;11.37;;;8.80;99.90;;;;;;5097050;28;20278;-75
2023/12/19 09:12:37;;;;;;;22.03;11.50;;;8.80;99.90;;;;;;5096629;28;20301;-75
2023/12/19 09:15:05;;;;;;;18.33;11.00;;;8.80;99.90;;;;;;5096566;28;20299;-75
2023/12/19 09:17:31;;;;;;;21.03;11.70;;;8.90;99.90;;;;;;5097182;28;20377;-75
2023/12/19 09:19:57;;;;;;;23.63;13.60;;;8.90;99.90;;;;;;5097424;28;20281;-75
2023/12/19 09:22:23;;;;;;;28.33;14.17;;;8.90;99.90;;;;;;5096645;28;20043;-79
2023/12/19 09:24:48;;;;;;;25.63;12.80;;;8.90;99.90;;;;;;5096469;28;20274;-76
2023/12/19 09:27:16;;;;;;;26.57;14.33;;;8.90;99.90;;;;;;5096999;28;20521;-76
2023/12/19 09:29:41;;;;;;;30.17;15.77;;;8.90;99.90;;;;;;5096449;28;20404;-76
2023/12/19 09:32:07;;;;;;;37.63;17.10;;;8.90;99.90;;;;;;5096154;28;20294;-75
2023/12/19 09:34:42;;;;;;;39.43;17.27;;;8.90;99.90;;;;;;5096338;28;20052;-75
2023/12/19 09:37:07;;;;;;;38.88;18.20;;;8.90;99.90;;;;;;5096881;28;20105;-75
2023/12/19 09:39:33;;;;;;;41.37;18.17;;;8.90;99.90;;;;;;5095923;28;20044;-75
2023/12/19 09:41:59;;;;;;;37.20;17.47;;;9.00;99.90;;;;;;5096078;28;20044;-75
2023/12/19 09:44:28;;;;;;;46.03;19.83;;;9.00;99.90;;;;;;5096060;28;20090;-76
2023/12/19 09:46:54;;;;;;;44.40;19.67;;;9.00;99.90;;;;;;5095709;28;20044;-75
2023/12/19 09:49:25;;;;;;;42.13;18.77;;;9.00;99.90;;;;;;5094976;28;20765;-76
2023/12/19 09:51:53;;;;;;;44.73;20.00;;;9.00;99.90;;;;;;5096407;28;20363;-75
2023/12/19 09:54:20;;;;;;;41.20;19.27;;;9.00;99.90;;;;;;5095850;28;20278;-75
2023/12/19 09:56:47;;;;;;;52.20;20.40;;;9.10;99.90;;;;;;5094607;28;20278;-76
2023/12/19 09:59:16;;;;;;;47.73;22.20;;;9.10;99.90;;;;;;5095804;28;20282;-76
2023/12/19 10:01:42;;;;;;;49.20;21.90;;;9.10;99.90;;;;;;5096342;28;20277;-76
2023/12/19 10:04:13;;;;;;;50.93;22.80;;;9.10;99.90;;;;;;5096880;28;20373;-79
2023/12/19 10:06:41;;;;;;;45.80;22.10;;;9.20;99.90;;;;;;5096237;28;20278;-76
2023/12/19 10:09:08;;;;;;;45.43;23.07;;;9.20;99.90;;;;;;5095646;28;20633;-76
2023/12/19 10:11:33;;;;;;;59.37;25.20;;;9.20;99.90;;;;;;5095315;28;20661;-77
2023/12/19 10:14:14;;;;;;;52.90;25.83;;;9.30;99.90;;;;;;5094167;28;20282;-79
2023/12/19 10:16:43;;;;;;;53.87;25.87;;;9.30;99.90;;;;;;5095442;28;20109;-79
2023/12/19 10:19:13;;;;;;;48.43;25.33;;;9.30;99.90;;;;;;5095393;28;20333;-78
2023/12/19 10:21:40;;;;;;;51.10;27.03;;;9.30;99.90;;;;;;5095737;28;20277;-77
2023/12/19 10:24:08;;;;;;;44.77;23.53;;;9.40;99.90;;;;;;5095261;28;20282;-78
2023/12/19 10:26:34;;;;;;;49.70;26.53;;;9.40;99.90;;;;;;5095888;28;20284;-77
2023/12/19 10:28:59;;;;;;;46.83;25.10;;;9.40;99.90;;;;;;5095217;28;20360;-77
2023/12/19 10:31:25;;;;;;;47.93;25.87;;;9.40;99.90;;;;;;5095329;28;20051;-77
2023/12/19 10:33:54;;;;;;;45.90;23.80;;;9.50;99.90;;;;;;5095692;28;20040;-76
2023/12/19 10:36:26;;;;;;;42.17;22.43;;;9.50;99.90;;;;;;5095023;28;20412;-78
2023/12/19 10:38:53;;;;;;;41.83;21.97;;;9.50;99.90;;;;;;5095508;28;20286;-78
2023/12/19 10:41:24;;;;;;;37.73;19.17;;;9.50;99.90;;;;;;5095251;28;20282;-78
2023/12/19 10:43:51;;;;;;;36.47;18.60;;;9.50;99.90;;;;;;5095667;28;20357;-78
2023/12/19 10:46:24;;;;;;;31.77;16.23;;;9.50;99.90;;;;;;5095088;28;20278;-78
2023/12/19 10:49:00;;;;;;;30.17;17.00;;;9.50;99.90;;;;;;5095151;28;20278;-78
2023/12/19 10:51:37;;;;;;;33.17;17.40;;;9.50;99.90;;;;;;5094776;28;20343;-78
2023/12/19 10:54:11;;;;;;;32.13;16.97;;;9.50;99.90;;;;;;5095421;28;20371;-79
2023/12/19 10:56:43;;;;;;;29.08;15.25;;;9.50;99.90;;;;;;5094743;28;20290;-78
2023/12/19 10:59:16;;;;;;;32.50;16.27;;;9.50;99.90;;;;;;5094939;28;20480;-78
2023/12/19 11:01:43;;;;;;;31.23;16.57;;;9.50;99.90;;;;;;5094679;28;20270;-78
2023/12/19 11:04:20;;;;;;;32.87;16.27;;;9.50;99.90;;;;;;5094683;28;20361;-78
2023/12/19 11:06:53;;;;;;;31.43;15.67;;;9.50;99.90;;;;;;5093914;28;20311;-78
2023/12/19 11:09:25;;;;;;;33.03;15.93;;;9.50;99.90;;;;;;5095340;28;20270;-78
2023/12/19 11:11:51;;;;;;;27.07;14.50;;;9.50;99.90;;;;;;5094906;28;20388;-78
2023/12/19 11:14:22;;;;;;;31.83;16.57;;;9.60;99.90;;;;;;5094347;28;20289;-78
2023/12/19 11:17:40;;;;;;;30.07;15.27;;;9.60;99.90;;;;;;5093727;28;20297;-79
2023/12/19 11:20:16;;;;;;;32.60;15.60;;;9.50;99.90;;;;;;5054940;28;20298;-79
2023/12/19 11:23:13;;;;;;;34.63;17.00;;;9.60;99.90;;;;;;5094562;28;20273;-79
2023/12/19 11:25:46;;;;;;;27.83;14.23;;;9.50;99.90;;;;;;5068470;28;20305;-79
2023/12/19 11:28:11;;;;;;;35.93;16.63;;;9.50;99.90;;;;;;5093887;28;20289;-79
2023/12/19 11:30:40;;;;;;;33.93;17.37;;;9.50;99.90;;;;;;5094922;28;20278;-79
2023/12/19 11:33:11;;;;;;;34.57;16.87;;;9.50;99.90;;;;;;5094021;28;20040;-79
2023/12/19 11:35:37;;;;;;;36.03;16.37;;;9.50;99.90;;;;;;5092825;28;20282;-79
2023/12/19 11:38:21;;;;;;;27.47;13.90;;;9.60;99.90;;;;;;5093982;28;20355;-78
2023/12/19 11:40:51;;;;;;;36.97;15.20;;;9.60;99.90;;;;;;5094058;28;20361;-79
2023/12/19 11:43:31;;;;;;;33.63;15.47;;;9.60;99.90;;;;;;5092942;28;20340;-78
2023/12/19 11:46:04;;;;;;;29.50;13.70;;;9.60;99.90;;;;;;5093828;28;20289;-78
2023/12/19 11:48:37;;;;;;;37.37;15.20;;;9.60;99.90;;;;;;5094593;28;20290;-78
2023/12/19 11:51:04;;;;;;;33.77;16.17;;;9.60;99.90;;;;;;5093842;28;20286;-79
2023/12/19 11:53:30;;;;;;;30.93;14.40;;;9.50;99.90;;;;;;5094287;28;20298;-78
2023/12/19 11:56:13;;;;;;;31.47;14.73;;;9.60;99.90;;;;;;5094331;28;20278;-80
2023/12/19 11:58:52;;;;;;;26.80;13.17;;;9.60;99.90;;;;;;5093603;28;20301;-77
2023/12/19 12:01:20;;;;;;;30.07;13.67;;;9.60;99.90;;;;;;5093768;28;20282;-74
2023/12/19 12:03:47;;;;;;;26.40;12.13;;;9.60;99.90;;;;;;5094494;28;20290;-73
2023/12/19 12:06:17;;;;;;;29.27;14.03;;;9.60;99.90;;;;;;5093421;28;20765;-74
2023/12/19 12:08:54;;;;;;;25.73;13.03;;;9.60;99.90;;;;;;5093566;28;20829;-74
2023/12/19 12:11:20;;;;;;;29.73;12.60;;;9.60;99.90;;;;;;5093711;28;20278;-74
2023/12/19 12:14:01;;;;;;;32.80;12.73;;;9.60;99.90;;;;;;5093789;28;20355;-74
2023/12/19 12:16:40;;;;;;;33.57;13.60;;;9.60;99.90;;;;;;5093381;28;20552;-73
2023/12/19 12:19:26;;;;;;;27.87;12.30;;;9.60;99.90;;;;;;5093587;28;20278;-73
2023/12/19 12:21:51;;;;;;;;;;;9.60;99.90;;;;;;5094009;28;20266;-75
2023/12/19 12:24:24;;;;;;;29.13;12.07;;;9.60;99.90;;;;;;5093632;28;19968;-76
2023/12/19 12:26:51;;;;;;;29.07;11.90;;;9.60;99.90;;;;;;5094321;28;20080;-77
2023/12/19 12:29:19;;;;;;;29.37;12.23;;;9.60;99.90;;;;;;5093490;28;20347;-74
2023/12/19 12:31:47;;;;;;;28.50;10.90;;;9.60;99.90;;;;;;5093431;28;20377;-76
2023/12/19 12:34:14;;;;;;;21.33;10.03;;;9.60;99.90;;;;;;5094070;28;20273;-72
2023/12/19 12:36:49;;;;;;;24.13;10.67;;;9.60;99.90;;;;;;5092267;28;20286;-78
2023/12/19 12:39:20;;;;;;;29.27;10.65;;;9.70;99.90;;;;;;5097774;28;20653;-72